sensor_id;sensor_type;location;lat;lon;timestamp;temperature;humidity
36450;DHT22;22475;51.390;7.180;2023-05-15T00:01:56;17.10;91.90
36450;DHT22;22475;51.390;7.180;2023-05-15T00:04:22;17.10;91.90
36450;DHT22;22475;51.390;7.180;2023-05-15T00:06:49;17.10;91.80
36450;DHT22;22475;51.390;7.180;2023-05-15T00:09:16;17.10;91.70
36450;DHT22;22475;51.390;7.180;2023-05-15T00:11:44;17.00;91.70
36450;DHT22;22475;51.390;7.180;2023-05-15T00:14:11;17.10;91.60
36450;DHT22;22475;51.390;7.180;2023-05-15T00:16:37;17.10;91.60
36450;DHT22;22475;51.390;7.180;2023-05-15T00:19:04;17.00;91.60
36450;DHT22;22475;51.390;7.180;2023-05-15T00:21:31;17.00;91.60
36450;DHT22;22475;51.390;7.180;2023-05-15T00:23:58;17.00;91.60
36450;DHT22;22475;51.390;7.180;2023-05-15T00:26:25;17.00;91.50
36450;DHT22;22475;51.390;7.180;2023-05-15T00:28:53;17.00;91.50
36450;DHT22;22475;51.390;7.180;2023-05-15T00:31:19;17.00;91.90
36450;DHT22;22475;51.390;7.180;2023-05-15T00:33:46;17.00;91.50
36450;DHT22;22475;51.390;7.180;2023-05-15T00:36:13;17.00;91.50
36450;DHT22;22475;51.390;7.180;2023-05-15T00:38:40;17.00;91.50
36450;DHT22;22475;51.390;7.180;2023-05-15T00:41:07;17.00;91.60
36450;DHT22;22475;51.390;7.180;2023-05-15T00:43:35;17.00;91.50
36450;DHT22;22475;51.390;7.180;2023-05-15T00:46:05;17.00;91.60
36450;DHT22;22475;51.390;7.180;2023-05-15T00:48:33;17.00;91.50
36450;DHT22;22475;51.390;7.180;2023-05-15T00:50:59;17.10;91.50
36450;DHT22;22475;51.390;7.180;2023-05-15T00:53:27;17.00;91.40
36450;DHT22;22475;51.390;7.180;2023-05-15T00:55:56;17.00;91.40
36450;DHT22;22475;51.390;7.180;2023-05-15T00:58:23;17.00;91.40
36450;DHT22;22475;51.390;7.180;2023-05-15T01:00:52;17.00;91.40
36450;DHT22;22475;51.390;7.180;2023-05-15T01:03:21;17.00;91.40
36450;DHT22;22475;51.390;7.180;2023-05-15T01:05:48;17.00;91.30
36450;DHT22;22475;51.390;7.180;2023-05-15T01:08:20;17.00;91.30
36450;DHT22;22475;51.390;7.180;2023-05-15T01:10:50;17.00;91.30
36450;DHT22;22475;51.390;7.180;2023-05-15T01:13:19;17.00;91.30
36450;DHT22;22475;51.390;7.180;2023-05-15T01:15:46;17.00;91.30
36450;DHT22;22475;51.390;7.180;2023-05-15T01:18:14;17.00;91.30
36450;DHT22;22475;51.390;7.180;2023-05-15T01:20:49;17.00;91.40
36450;DHT22;22475;51.390;7.180;2023-05-15T01:23:23;16.90;91.40
36450;DHT22;22475;51.390;7.180;2023-05-15T01:29:01;17.00;91.50
36450;DHT22;22475;51.390;7.180;2023-05-15T01:31:31;16.90;91.50
36450;DHT22;22475;51.390;7.180;2023-05-15T01:34:02;17.00;91.50
36450;DHT22;22475;51.390;7.180;2023-05-15T01:36:32;17.00;91.50
36450;DHT22;22475;51.390;7.180;2023-05-15T01:39:02;17.00;91.50
36450;DHT22;22475;51.390;7.180;2023-05-15T01:41:34;17.00;91.50
36450;DHT22;22475;51.390;7.180;2023-05-15T01:44:06;16.90;91.40
36450;DHT22;22475;51.390;7.180;2023-05-15T01:46:35;16.90;91.40
36450;DHT22;22475;51.390;7.180;2023-05-15T01:49:03;16.90;91.40
36450;DHT22;22475;51.390;7.180;2023-05-15T01:51:34;16.90;91.40
36450;DHT22;22475;51.390;7.180;2023-05-15T01:54:02;16.90;91.40
36450;DHT22;22475;51.390;7.180;2023-05-15T01:56:31;16.90;91.40
36450;DHT22;22475;51.390;7.180;2023-05-15T01:58:59;16.90;91.40
36450;DHT22;22475;51.390;7.180;2023-05-15T02:01:28;16.90;91.40
36450;DHT22;22475;51.390;7.180;2023-05-15T02:03:58;16.90;91.40
36450;DHT22;22475;51.390;7.180;2023-05-15T02:06:25;16.90;91.40
36450;DHT22;22475;51.390;7.180;2023-05-15T02:08:57;16.90;91.40
36450;DHT22;22475;51.390;7.180;2023-05-15T02:11:24;16.90;91.30
36450;DHT22;22475;51.390;7.180;2023-05-15T02:13:52;16.90;91.30
36450;DHT22;22475;51.390;7.180;2023-05-15T02:16:20;16.90;91.30
36450;DHT22;22475;51.390;7.180;2023-05-15T02:18:48;16.90;91.40
36450;DHT22;22475;51.390;7.180;2023-05-15T02:21:17;16.90;91.40
36450;DHT22;22475;51.390;7.180;2023-05-15T02:23:43;16.90;91.30
36450;DHT22;22475;51.390;7.180;2023-05-15T02:26:27;16.90;91.30
36450;DHT22;22475;51.390;7.180;2023-05-15T02:29:04;16.90;91.30
36450;DHT22;22475;51.390;7.180;2023-05-15T02:31:37;16.80;91.30
36450;DHT22;22475;51.390;7.180;2023-05-15T02:34:11;16.90;91.30
36450;DHT22;22475;51.390;7.180;2023-05-15T02:36:44;16.90;91.30
36450;DHT22;22475;51.390;7.180;2023-05-15T02:39:12;16.80;91.30
36450;DHT22;22475;51.390;7.180;2023-05-15T02:41:41;16.80;91.30
36450;DHT22;22475;51.390;7.180;2023-05-15T02:44:09;16.80;91.30
36450;DHT22;22475;51.390;7.180;2023-05-15T02:46:37;16.90;91.40
36450;DHT22;22475;51.390;7.180;2023-05-15T02:49:07;16.80;91.40
36450;DHT22;22475;51.390;7.180;2023-05-15T02:51:34;16.80;91.30
36450;DHT22;22475;51.390;7.180;2023-05-15T02:54:01;16.80;91.30
36450;DHT22;22475;51.390;7.180;2023-05-15T02:56:28;16.90;91.40
36450;DHT22;22475;51.390;7.180;2023-05-15T02:58:54;16.90;91.50
36450;DHT22;22475;51.390;7.180;2023-05-15T03:01:21;16.80;91.60
36450;DHT22;22475;51.390;7.180;2023-05-15T03:03:48;16.80;91.70
36450;DHT22;22475;51.390;7.180;2023-05-15T03:06:16;16.90;91.70
36450;DHT22;22475;51.390;7.180;2023-05-15T03:08:43;16.90;91.70
36450;DHT22;22475;51.390;7.180;2023-05-15T03:11:10;16.90;91.80
36450;DHT22;22475;51.390;7.180;2023-05-15T03:13:37;16.90;91.80
36450;DHT22;22475;51.390;7.180;2023-05-15T03:16:04;16.90;91.80
36450;DHT22;22475;51.390;7.180;2023-05-15T03:18:31;16.90;91.90
36450;DHT22;22475;51.390;7.180;2023-05-15T03:20:57;16.90;91.90
36450;DHT22;22475;51.390;7.180;2023-05-15T03:23:25;16.90;91.90
36450;DHT22;22475;51.390;7.180;2023-05-15T03:25:52;16.90;91.90
36450;DHT22;22475;51.390;7.180;2023-05-15T03:28:19;16.90;91.90
36450;DHT22;22475;51.390;7.180;2023-05-15T03:30:46;16.90;92.00
36450;DHT22;22475;51.390;7.180;2023-05-15T03:33:12;16.90;92.00
36450;DHT22;22475;51.390;7.180;2023-05-15T03:35:39;16.90;92.10
36450;DHT22;22475;51.390;7.180;2023-05-15T03:38:06;16.90;92.10
36450;DHT22;22475;51.390;7.180;2023-05-15T03:40:34;16.90;92.10
36450;DHT22;22475;51.390;7.180;2023-05-15T03:43:00;16.90;92.20
36450;DHT22;22475;51.390;7.180;2023-05-15T03:45:27;16.90;92.20
36450;DHT22;22475;51.390;7.180;2023-05-15T03:47:54;16.90;92.30
36450;DHT22;22475;51.390;7.180;2023-05-15T03:50:21;16.90;92.30
36450;DHT22;22475;51.390;7.180;2023-05-15T03:52:47;16.90;92.30
36450;DHT22;22475;51.390;7.180;2023-05-15T03:55:14;16.90;92.30
36450;DHT22;22475;51.390;7.180;2023-05-15T03:57:42;16.90;92.40
36450;DHT22;22475;51.390;7.180;2023-05-15T04:00:10;16.90;92.40
36450;DHT22;22475;51.390;7.180;2023-05-15T04:02:37;16.90;92.40
36450;DHT22;22475;51.390;7.180;2023-05-15T04:05:05;16.90;92.40
36450;DHT22;22475;51.390;7.180;2023-05-15T04:07:33;16.90;92.50
36450;DHT22;22475;51.390;7.180;2023-05-15T04:10:00;16.90;92.50
36450;DHT22;22475;51.390;7.180;2023-05-15T04:12:27;16.90;92.50
36450;DHT22;22475;51.390;7.180;2023-05-15T04:14:58;16.90;92.50
36450;DHT22;22475;51.390;7.180;2023-05-15T04:17:38;16.90;92.50
36450;DHT22;22475;51.390;7.180;2023-05-15T04:20:06;16.90;92.50
36450;DHT22;22475;51.390;7.180;2023-05-15T04:22:34;16.90;92.60
36450;DHT22;22475;51.390;7.180;2023-05-15T04:25:00;16.90;92.60
36450;DHT22;22475;51.390;7.180;2023-05-15T04:27:27;16.90;92.50
36450;DHT22;22475;51.390;7.180;2023-05-15T04:29:55;16.90;92.50
36450;DHT22;22475;51.390;7.180;2023-05-15T04:32:22;16.90;92.60
36450;DHT22;22475;51.390;7.180;2023-05-15T04:34:49;17.00;92.60
36450;DHT22;22475;51.390;7.180;2023-05-15T04:37:15;16.90;92.50
36450;DHT22;22475;51.390;7.180;2023-05-15T04:39:42;16.90;92.60
36450;DHT22;22475;51.390;7.180;2023-05-15T04:42:09;16.90;92.60
36450;DHT22;22475;51.390;7.180;2023-05-15T04:44:36;16.90;92.60
36450;DHT22;22475;51.390;7.180;2023-05-15T04:47:04;16.90;92.60
36450;DHT22;22475;51.390;7.180;2023-05-15T04:49:31;16.90;92.60
36450;DHT22;22475;51.390;7.180;2023-05-15T04:51:57;16.90;92.60
36450;DHT22;22475;51.390;7.180;2023-05-15T04:54:24;16.90;92.60
36450;DHT22;22475;51.390;7.180;2023-05-15T04:56:51;16.90;92.60
36450;DHT22;22475;51.390;7.180;2023-05-15T04:59:18;16.90;92.90
36450;DHT22;22475;51.390;7.180;2023-05-15T05:01:44;16.90;92.60
36450;DHT22;22475;51.390;7.180;2023-05-15T05:04:12;16.90;92.60
36450;DHT22;22475;51.390;7.180;2023-05-15T05:06:43;16.90;92.60
36450;DHT22;22475;51.390;7.180;2023-05-15T05:09:10;16.90;92.60
36450;DHT22;22475;51.390;7.180;2023-05-15T05:11:38;16.90;92.60
36450;DHT22;22475;51.390;7.180;2023-05-15T05:14:07;16.90;92.60
36450;DHT22;22475;51.390;7.180;2023-05-15T05:16:34;16.90;92.60
36450;DHT22;22475;51.390;7.180;2023-05-15T05:19:01;17.00;92.50
36450;DHT22;22475;51.390;7.180;2023-05-15T05:21:29;16.90;92.50
36450;DHT22;22475;51.390;7.180;2023-05-15T05:23:56;16.90;92.50
36450;DHT22;22475;51.390;7.180;2023-05-15T05:26:23;16.90;92.50
36450;DHT22;22475;51.390;7.180;2023-05-15T05:28:50;16.90;92.50
36450;DHT22;22475;51.390;7.180;2023-05-15T05:31:17;16.90;92.50
36450;DHT22;22475;51.390;7.180;2023-05-15T05:33:43;16.90;92.50
36450;DHT22;22475;51.390;7.180;2023-05-15T05:36:10;16.90;92.50
36450;DHT22;22475;51.390;7.180;2023-05-15T05:38:38;16.90;92.50
36450;DHT22;22475;51.390;7.180;2023-05-15T05:41:05;16.90;92.50
36450;DHT22;22475;51.390;7.180;2023-05-15T05:43:32;16.90;92.60
36450;DHT22;22475;51.390;7.180;2023-05-15T05:45:58;16.90;92.60
36450;DHT22;22475;51.390;7.180;2023-05-15T05:48:25;16.90;92.50
36450;DHT22;22475;51.390;7.180;2023-05-15T05:50:52;16.90;92.60
36450;DHT22;22475;51.390;7.180;2023-05-15T05:53:19;16.90;92.60
36450;DHT22;22475;51.390;7.180;2023-05-15T05:55:47;16.90;92.50
36450;DHT22;22475;51.390;7.180;2023-05-15T05:58:14;16.90;92.50
36450;DHT22;22475;51.390;7.180;2023-05-15T06:00:41;16.90;92.50
36450;DHT22;22475;51.390;7.180;2023-05-15T06:03:08;16.90;92.40
36450;DHT22;22475;51.390;7.180;2023-05-15T06:05:38;16.90;92.40
36450;DHT22;22475;51.390;7.180;2023-05-15T06:08:05;16.90;92.40
36450;DHT22;22475;51.390;7.180;2023-05-15T06:10:32;16.80;92.40
36450;DHT22;22475;51.390;7.180;2023-05-15T06:13:00;16.90;92.40
36450;DHT22;22475;51.390;7.180;2023-05-15T06:15:29;16.90;92.40
36450;DHT22;22475;51.390;7.180;2023-05-15T06:17:56;16.90;92.40
36450;DHT22;22475;51.390;7.180;2023-05-15T06:20:23;16.90;92.40
36450;DHT22;22475;51.390;7.180;2023-05-15T06:22:49;16.90;92.40
36450;DHT22;22475;51.390;7.180;2023-05-15T06:25:16;16.80;92.40
36450;DHT22;22475;51.390;7.180;2023-05-15T06:27:43;16.90;92.50
36450;DHT22;22475;51.390;7.180;2023-05-15T06:30:12;16.90;92.50
36450;DHT22;22475;51.390;7.180;2023-05-15T06:32:39;16.90;92.50
36450;DHT22;22475;51.390;7.180;2023-05-15T06:35:07;16.80;92.50
36450;DHT22;22475;51.390;7.180;2023-05-15T06:37:34;16.90;92.60
36450;DHT22;22475;51.390;7.180;2023-05-15T06:40:01;16.90;92.50
36450;DHT22;22475;51.390;7.180;2023-05-15T06:42:28;16.90;92.50
36450;DHT22;22475;51.390;7.180;2023-05-15T06:44:55;16.80;92.50
36450;DHT22;22475;51.390;7.180;2023-05-15T06:47:23;16.80;92.50
36450;DHT22;22475;51.390;7.180;2023-05-15T06:49:52;16.80;92.50
36450;DHT22;22475;51.390;7.180;2023-05-15T06:52:19;16.90;92.60
36450;DHT22;22475;51.390;7.180;2023-05-15T06:54:46;16.90;92.90
36450;DHT22;22475;51.390;7.180;2023-05-15T06:57:12;16.90;92.60
36450;DHT22;22475;51.390;7.180;2023-05-15T06:59:39;16.90;92.60
36450;DHT22;22475;51.390;7.180;2023-05-15T07:02:06;16.90;92.60
36450;DHT22;22475;51.390;7.180;2023-05-15T07:04:34;16.90;92.60
36450;DHT22;22475;51.390;7.180;2023-05-15T07:07:01;16.90;92.60
36450;DHT22;22475;51.390;7.180;2023-05-15T07:09:27;16.90;92.60
36450;DHT22;22475;51.390;7.180;2023-05-15T07:11:54;16.90;92.60
36450;DHT22;22475;51.390;7.180;2023-05-15T07:14:21;16.80;92.60
36450;DHT22;22475;51.390;7.180;2023-05-15T07:16:48;16.90;92.60
36450;DHT22;22475;51.390;7.180;2023-05-15T07:19:16;16.90;92.60
36450;DHT22;22475;51.390;7.180;2023-05-15T07:21:45;16.90;92.50
36450;DHT22;22475;51.390;7.180;2023-05-15T07:24:11;16.90;92.50
36450;DHT22;22475;51.390;7.180;2023-05-15T07:26:38;16.90;92.50
36450;DHT22;22475;51.390;7.180;2023-05-15T07:29:05;16.90;92.50
36450;DHT22;22475;51.390;7.180;2023-05-15T07:31:32;16.80;92.50
36450;DHT22;22475;51.390;7.180;2023-05-15T07:33:59;16.80;92.50
36450;DHT22;22475;51.390;7.180;2023-05-15T07:36:25;16.90;92.50
36450;DHT22;22475;51.390;7.180;2023-05-15T07:38:53;16.90;92.50
36450;DHT22;22475;51.390;7.180;2023-05-15T07:41:20;16.80;92.50
36450;DHT22;22475;51.390;7.180;2023-05-15T07:43:47;16.80;92.50
36450;DHT22;22475;51.390;7.180;2023-05-15T07:46:14;16.80;92.50
36450;DHT22;22475;51.390;7.180;2023-05-15T07:48:40;16.80;92.50
36450;DHT22;22475;51.390;7.180;2023-05-15T07:51:07;16.90;92.50
36450;DHT22;22475;51.390;7.180;2023-05-15T07:53:34;16.80;92.50
36450;DHT22;22475;51.390;7.180;2023-05-15T07:56:02;16.80;92.50
36450;DHT22;22475;51.390;7.180;2023-05-15T07:58:29;16.90;92.60
36450;DHT22;22475;51.390;7.180;2023-05-15T08:00:56;16.80;92.50
36450;DHT22;22475;51.390;7.180;2023-05-15T08:03:23;16.80;92.50
36450;DHT22;22475;51.390;7.180;2023-05-15T08:05:49;16.90;92.60
36450;DHT22;22475;51.390;7.180;2023-05-15T08:08:16;16.90;92.60
36450;DHT22;22475;51.390;7.180;2023-05-15T08:10:43;16.80;92.50
36450;DHT22;22475;51.390;7.180;2023-05-15T08:13:11;16.90;92.50
36450;DHT22;22475;51.390;7.180;2023-05-15T08:15:38;16.80;92.50
36450;DHT22;22475;51.390;7.180;2023-05-15T08:18:07;16.90;92.50
36450;DHT22;22475;51.390;7.180;2023-05-15T08:20:34;16.90;92.50
36450;DHT22;22475;51.390;7.180;2023-05-15T08:23:01;16.90;92.50
36450;DHT22;22475;51.390;7.180;2023-05-15T08:25:27;16.90;92.50
36450;DHT22;22475;51.390;7.180;2023-05-15T08:27:54;16.90;92.50
36450;DHT22;22475;51.390;7.180;2023-05-15T08:30:22;16.90;92.50
36450;DHT22;22475;51.390;7.180;2023-05-15T08:32:49;16.90;92.40
36450;DHT22;22475;51.390;7.180;2023-05-15T08:35:16;16.90;92.40
36450;DHT22;22475;51.390;7.180;2023-05-15T08:37:42;16.90;92.40
36450;DHT22;22475;51.390;7.180;2023-05-15T08:40:10;16.90;92.30
36450;DHT22;22475;51.390;7.180;2023-05-15T08:42:42;16.90;92.30
36450;DHT22;22475;51.390;7.180;2023-05-15T08:45:11;16.90;92.30
36450;DHT22;22475;51.390;7.180;2023-05-15T08:47:41;16.90;92.30
36450;DHT22;22475;51.390;7.180;2023-05-15T08:50:09;16.90;92.20
36450;DHT22;22475;51.390;7.180;2023-05-15T08:52:40;16.90;92.20
36450;DHT22;22475;51.390;7.180;2023-05-15T08:55:07;16.90;92.30
36450;DHT22;22475;51.390;7.180;2023-05-15T08:57:35;16.90;92.20
36450;DHT22;22475;51.390;7.180;2023-05-15T09:00:02;16.90;92.20
36450;DHT22;22475;51.390;7.180;2023-05-15T09:02:32;16.90;92.20
36450;DHT22;22475;51.390;7.180;2023-05-15T09:05:00;17.00;92.10
36450;DHT22;22475;51.390;7.180;2023-05-15T09:07:29;16.90;92.10
36450;DHT22;22475;51.390;7.180;2023-05-15T09:09:56;16.90;92.10
36450;DHT22;22475;51.390;7.180;2023-05-15T09:12:24;16.90;92.10
36450;DHT22;22475;51.390;7.180;2023-05-15T09:14:57;17.00;92.10
36450;DHT22;22475;51.390;7.180;2023-05-15T09:17:33;16.90;92.10
36450;DHT22;22475;51.390;7.180;2023-05-15T09:20:01;17.00;92.50
36450;DHT22;22475;51.390;7.180;2023-05-15T09:22:34;16.90;92.20
36450;DHT22;22475;51.390;7.180;2023-05-15T09:25:01;17.00;92.30
36450;DHT22;22475;51.390;7.180;2023-05-15T09:27:28;16.90;92.20
36450;DHT22;22475;51.390;7.180;2023-05-15T09:30:07;17.00;92.30
36450;DHT22;22475;51.390;7.180;2023-05-15T09:32:34;17.00;92.30
36450;DHT22;22475;51.390;7.180;2023-05-15T09:35:04;17.00;92.30
36450;DHT22;22475;51.390;7.180;2023-05-15T09:37:56;17.00;92.30
36450;DHT22;22475;51.390;7.180;2023-05-15T09:40:27;17.00;92.30
36450;DHT22;22475;51.390;7.180;2023-05-15T09:42:54;17.00;92.30
36450;DHT22;22475;51.390;7.180;2023-05-15T09:45:21;17.00;92.40
36450;DHT22;22475;51.390;7.180;2023-05-15T09:47:50;17.00;92.40
36450;DHT22;22475;51.390;7.180;2023-05-15T09:50:21;17.00;92.40
36450;DHT22;22475;51.390;7.180;2023-05-15T09:52:49;17.00;92.40
36450;DHT22;22475;51.390;7.180;2023-05-15T09:55:16;17.00;92.40
36450;DHT22;22475;51.390;7.180;2023-05-15T09:57:44;17.00;92.40
36450;DHT22;22475;51.390;7.180;2023-05-15T10:00:11;17.00;92.40
36450;DHT22;22475;51.390;7.180;2023-05-15T10:02:40;17.00;92.40
36450;DHT22;22475;51.390;7.180;2023-05-15T10:05:07;17.00;92.40
36450;DHT22;22475;51.390;7.180;2023-05-15T10:07:35;17.00;92.40
36450;DHT22;22475;51.390;7.180;2023-05-15T10:10:03;17.00;92.40
36450;DHT22;22475;51.390;7.180;2023-05-15T10:12:31;17.00;92.40
36450;DHT22;22475;51.390;7.180;2023-05-15T10:14:58;17.00;92.50
36450;DHT22;22475;51.390;7.180;2023-05-15T10:17:27;17.00;92.50
36450;DHT22;22475;51.390;7.180;2023-05-15T10:19:57;17.00;92.50
36450;DHT22;22475;51.390;7.180;2023-05-15T10:22:25;17.00;92.50
36450;DHT22;22475;51.390;7.180;2023-05-15T10:24:59;17.00;92.50
36450;DHT22;22475;51.390;7.180;2023-05-15T10:27:26;17.00;92.40
36450;DHT22;22475;51.390;7.180;2023-05-15T10:29:55;17.00;92.40
36450;DHT22;22475;51.390;7.180;2023-05-15T10:32:23;17.00;92.50
36450;DHT22;22475;51.390;7.180;2023-05-15T10:34:51;17.00;92.50
36450;DHT22;22475;51.390;7.180;2023-05-15T10:37:19;17.00;92.50
36450;DHT22;22475;51.390;7.180;2023-05-15T10:39:46;17.00;92.50
36450;DHT22;22475;51.390;7.180;2023-05-15T10:42:15;17.00;92.50
36450;DHT22;22475;51.390;7.180;2023-05-15T10:44:42;17.00;92.50
36450;DHT22;22475;51.390;7.180;2023-05-15T10:47:09;17.00;92.50
36450;DHT22;22475;51.390;7.180;2023-05-15T10:49:36;17.00;92.50
36450;DHT22;22475;51.390;7.180;2023-05-15T10:52:03;17.00;92.60
36450;DHT22;22475;51.390;7.180;2023-05-15T10:54:30;17.10;92.60
36450;DHT22;22475;51.390;7.180;2023-05-15T10:56:57;17.00;92.60
36450;DHT22;22475;51.390;7.180;2023-05-15T10:59:31;17.00;92.60
36450;DHT22;22475;51.390;7.180;2023-05-15T11:02:20;17.10;92.60
36450;DHT22;22475;51.390;7.180;2023-05-15T11:04:52;17.10;92.60
36450;DHT22;22475;51.390;7.180;2023-05-15T11:07:19;17.00;92.60
36450;DHT22;22475;51.390;7.180;2023-05-15T11:09:48;17.00;92.60
36450;DHT22;22475;51.390;7.180;2023-05-15T11:12:15;17.00;92.60
36450;DHT22;22475;51.390;7.180;2023-05-15T11:15:19;17.00;92.60
36450;DHT22;22475;51.390;7.180;2023-05-15T11:18:01;17.10;92.60
36450;DHT22;22475;51.390;7.180;2023-05-15T11:20:32;17.00;92.60
36450;DHT22;22475;51.390;7.180;2023-05-15T11:22:59;17.00;92.60
36450;DHT22;22475;51.390;7.180;2023-05-15T11:25:28;17.10;92.60
36450;DHT22;22475;51.390;7.180;2023-05-15T11:27:55;17.00;92.60
36450;DHT22;22475;51.390;7.180;2023-05-15T11:30:33;17.00;92.60
36450;DHT22;22475;51.390;7.180;2023-05-15T11:33:01;17.00;92.60
36450;DHT22;22475;51.390;7.180;2023-05-15T11:35:31;17.10;92.70
36450;DHT22;22475;51.390;7.180;2023-05-15T11:38:01;17.10;92.70
36450;DHT22;22475;51.390;7.180;2023-05-15T11:40:29;17.10;92.70
36450;DHT22;22475;51.390;7.180;2023-05-15T11:43:09;17.10;92.70
36450;DHT22;22475;51.390;7.180;2023-05-15T11:45:45;17.00;92.70
36450;DHT22;22475;51.390;7.180;2023-05-15T11:48:14;17.10;92.70
36450;DHT22;22475;51.390;7.180;2023-05-15T11:50:41;17.10;92.70
36450;DHT22;22475;51.390;7.180;2023-05-15T11:53:09;17.10;92.70
36450;DHT22;22475;51.390;7.180;2023-05-15T11:55:37;17.10;93.10
36450;DHT22;22475;51.390;7.180;2023-05-15T11:58:05;17.10;92.70
36450;DHT22;22475;51.390;7.180;2023-05-15T12:00:36;17.10;92.70
36450;DHT22;22475;51.390;7.180;2023-05-15T12:03:04;17.10;92.70
36450;DHT22;22475;51.390;7.180;2023-05-15T12:05:31;17.10;92.70
36450;DHT22;22475;51.390;7.180;2023-05-15T12:07:57;17.10;92.70
36450;DHT22;22475;51.390;7.180;2023-05-15T12:10:24;17.10;92.70
36450;DHT22;22475;51.390;7.180;2023-05-15T12:12:52;17.10;92.70
36450;DHT22;22475;51.390;7.180;2023-05-15T12:15:19;17.10;92.70
36450;DHT22;22475;51.390;7.180;2023-05-15T12:17:46;17.10;92.70
36450;DHT22;22475;51.390;7.180;2023-05-15T12:20:16;17.10;92.70
36450;DHT22;22475;51.390;7.180;2023-05-15T12:22:44;17.10;92.70
36450;DHT22;22475;51.390;7.180;2023-05-15T12:25:13;17.10;92.70
36450;DHT22;22475;51.390;7.180;2023-05-15T12:27:40;17.10;92.70
36450;DHT22;22475;51.390;7.180;2023-05-15T12:30:08;17.10;92.70
36450;DHT22;22475;51.390;7.180;2023-05-15T12:32:36;17.10;92.70
36450;DHT22;22475;51.390;7.180;2023-05-15T12:35:04;17.10;92.60
36450;DHT22;22475;51.390;7.180;2023-05-15T12:37:34;17.10;92.60
36450;DHT22;22475;51.390;7.180;2023-05-15T12:40:03;17.10;92.60
36450;DHT22;22475;51.390;7.180;2023-05-15T12:42:38;17.10;92.60
36450;DHT22;22475;51.390;7.180;2023-05-15T12:45:11;17.10;92.60
36450;DHT22;22475;51.390;7.180;2023-05-15T12:47:39;17.10;92.50
36450;DHT22;22475;51.390;7.180;2023-05-15T12:50:12;17.10;92.50
36450;DHT22;22475;51.390;7.180;2023-05-15T12:52:45;17.10;92.50
36450;DHT22;22475;51.390;7.180;2023-05-15T12:55:15;17.10;92.50
36450;DHT22;22475;51.390;7.180;2023-05-15T12:57:42;17.10;92.50
36450;DHT22;22475;51.390;7.180;2023-05-15T13:00:10;17.10;92.60
36450;DHT22;22475;51.390;7.180;2023-05-15T13:02:37;17.10;92.60
36450;DHT22;22475;51.390;7.180;2023-05-15T13:05:04;17.10;92.60
36450;DHT22;22475;51.390;7.180;2023-05-15T13:07:31;17.10;92.60
36450;DHT22;22475;51.390;7.180;2023-05-15T13:10:06;17.10;92.60
36450;DHT22;22475;51.390;7.180;2023-05-15T13:12:37;17.10;92.60
36450;DHT22;22475;51.390;7.180;2023-05-15T13:15:05;17.10;92.60
36450;DHT22;22475;51.390;7.180;2023-05-15T13:17:32;17.10;92.60
36450;DHT22;22475;51.390;7.180;2023-05-15T13:20:00;17.10;92.70
36450;DHT22;22475;51.390;7.180;2023-05-15T13:22:27;17.10;92.70
36450;DHT22;22475;51.390;7.180;2023-05-15T13:24:55;17.10;92.70
36450;DHT22;22475;51.390;7.180;2023-05-15T13:27:23;17.10;92.60
36450;DHT22;22475;51.390;7.180;2023-05-15T13:29:50;17.10;92.60
36450;DHT22;22475;51.390;7.180;2023-05-15T13:32:17;17.20;92.60
36450;DHT22;22475;51.390;7.180;2023-05-15T13:34:44;17.20;92.70
36450;DHT22;22475;51.390;7.180;2023-05-15T13:37:10;17.10;92.70
36450;DHT22;22475;51.390;7.180;2023-05-15T13:39:37;17.10;92.70
36450;DHT22;22475;51.390;7.180;2023-05-15T13:42:04;17.10;92.70
36450;DHT22;22475;51.390;7.180;2023-05-15T13:44:32;17.10;92.70
36450;DHT22;22475;51.390;7.180;2023-05-15T13:47:00;17.10;92.70
36450;DHT22;22475;51.390;7.180;2023-05-15T13:49:28;17.10;92.70
36450;DHT22;22475;51.390;7.180;2023-05-15T13:51:56;17.10;92.70
36450;DHT22;22475;51.390;7.180;2023-05-15T13:54:22;17.10;92.70
36450;DHT22;22475;51.390;7.180;2023-05-15T13:56:49;17.10;92.70
36450;DHT22;22475;51.390;7.180;2023-05-15T13:59:16;17.10;92.70
36450;DHT22;22475;51.390;7.180;2023-05-15T14:01:44;17.10;92.70
36450;DHT22;22475;51.390;7.180;2023-05-15T14:04:11;17.10;92.70
36450;DHT22;22475;51.390;7.180;2023-05-15T14:06:38;17.10;92.70
36450;DHT22;22475;51.390;7.180;2023-05-15T14:09:05;17.10;92.70
36450;DHT22;22475;51.390;7.180;2023-05-15T14:11:32;17.10;92.70
36450;DHT22;22475;51.390;7.180;2023-05-15T14:13:59;17.20;92.70
36450;DHT22;22475;51.390;7.180;2023-05-15T14:16:26;17.10;92.70
36450;DHT22;22475;51.390;7.180;2023-05-15T14:18:54;17.20;92.70
36450;DHT22;22475;51.390;7.180;2023-05-15T14:21:22;17.10;92.70
36450;DHT22;22475;51.390;7.180;2023-05-15T14:23:49;17.10;92.70
36450;DHT22;22475;51.390;7.180;2023-05-15T14:26:15;17.20;92.70
36450;DHT22;22475;51.390;7.180;2023-05-15T14:28:42;17.10;92.70
36450;DHT22;22475;51.390;7.180;2023-05-15T14:31:09;17.10;92.70
36450;DHT22;22475;51.390;7.180;2023-05-15T14:33:36;17.10;92.70
36450;DHT22;22475;51.390;7.180;2023-05-15T14:36:04;17.10;92.70
36450;DHT22;22475;51.390;7.180;2023-05-15T14:38:31;17.10;92.60
36450;DHT22;22475;51.390;7.180;2023-05-15T14:40:58;17.10;92.60
36450;DHT22;22475;51.390;7.180;2023-05-15T14:43:25;17.10;92.70
36450;DHT22;22475;51.390;7.180;2023-05-15T14:45:51;17.20;92.70
36450;DHT22;22475;51.390;7.180;2023-05-15T14:48:18;17.20;92.70
36450;DHT22;22475;51.390;7.180;2023-05-15T14:50:45;17.10;92.70
36450;DHT22;22475;51.390;7.180;2023-05-15T14:53:13;17.10;92.70
36450;DHT22;22475;51.390;7.180;2023-05-15T14:55:40;17.20;92.70
36450;DHT22;22475;51.390;7.180;2023-05-15T14:58:06;17.10;92.70
36450;DHT22;22475;51.390;7.180;2023-05-15T15:00:35;17.20;92.70
36450;DHT22;22475;51.390;7.180;2023-05-15T15:03:02;17.20;92.70
36450;DHT22;22475;51.390;7.180;2023-05-15T15:05:29;17.20;92.70
36450;DHT22;22475;51.390;7.180;2023-05-15T15:07:58;17.20;92.70
36450;DHT22;22475;51.390;7.180;2023-05-15T15:10:27;17.20;92.80
36450;DHT22;22475;51.390;7.180;2023-05-15T15:12:55;17.20;92.80
36450;DHT22;22475;51.390;7.180;2023-05-15T15:15:22;17.20;92.70
36450;DHT22;22475;51.390;7.180;2023-05-15T15:17:48;17.20;92.70
36450;DHT22;22475;51.390;7.180;2023-05-15T15:20:16;17.20;92.80
36450;DHT22;22475;51.390;7.180;2023-05-15T15:22:43;17.20;92.80
36450;DHT22;22475;51.390;7.180;2023-05-15T15:25:11;17.20;92.80
36450;DHT22;22475;51.390;7.180;2023-05-15T15:27:39;17.20;92.80
36450;DHT22;22475;51.390;7.180;2023-05-15T15:30:07;17.20;92.80
36450;DHT22;22475;51.390;7.180;2023-05-15T15:32:34;17.20;92.80
36450;DHT22;22475;51.390;7.180;2023-05-15T15:35:01;17.20;92.80
36450;DHT22;22475;51.390;7.180;2023-05-15T15:37:29;17.20;92.80
36450;DHT22;22475;51.390;7.180;2023-05-15T15:39:56;17.20;92.80